Hovedside
METAR-TAF:

METAR-TAF

Lufthavner :

Ålesund, Norge

Ålesund lufthavn

breddegrad: 62-34N, lengdegrad: 006-07E, høyde over havet: 2 m

Gjeldene værobservasjon

Denne rapporten ble laget for 20 minutter siden, klokken 11:50 UTC
Vind 8 kt fra Sør-sørøst
Temperatur 1°C
Luftfuktighet 93%
Trykk 994 hPa
Sikt: 4000 m
Spredte skyer i en høyde av 1000 ft
Spredte skyer i en høyde av 3500 ft
lette snøbyger

METAR: ENAL 151150Z 15008KT 9999 4000N -SHSN SCT010 SCT035 01/M00 Q0994

Tid: 13:10 (12:10 UTC)

Varsel

Denne rapporten ble laget for 1 time og 10 minutter siden, klokken 11:00 UTC
Varsel gyldig fra 15. klokken 12 UTC til 15. klokken 21 UTC
Vind 5 kt fra skiftende retning
Sikt 10 km eller mer
Få skyer i en høyde av 1500 ft, Bygeskyer.
Spredte skyer i en høyde av 4000 ft
Midlertidig
fra 15. klokken 12 UTC til 15. klokken 21 UTC
Vind 10 kt fra Sør-sørøst
Sikt: 0900 m
i en høyde av 700 ft
snøbyger

TAF: ENAL 151100Z 1512/1521 VRB05KT 9999 FEW015CB SCT040 TEMPO 1512/1521 15010KT 0900 SHSN VV007

Værobservasjoner og værvarsel for over 4000 flyplasser (METAR- og TAF-rapporter).

Tilgjengelige stasjoner er representert av de røde og gule prikkene på kartet.

Hold musepekeren over prikken for å se navnet på stasjonen.

Klikk så for å se værobservasjoner og -varsler.

For å forandre kartet kan du klikke på den grønne knappen med svart kryss for å zoome inn, på den grønne knappen med strek for å zoome ut, eller på de grønne pilene for å se tilstøtende kart.


METAR-TAF: